• Join FlightAware (Why Join?)
  • Login
  • US Flag 
02:16AM EDT


 

Airport Tracker/Info


-or-


 

Live Flight TrackerFlight Track Log ✈ D-ABTH ✈ 20-Apr-2013 ✈ KORD - EDDF / FRA

Flight Track Log - Related Links

Times and Time Zones

All times are in EDT time to prevent confusion due to time zone crossing. See the D-ABTH flight status page for this flight to view local times or setup timezone preferences in your user account.

Time Position Orientation Groundspeed Altitude Reporting Facility
EDT Latitude Longitude Course Direction KTS MPH feet Rate Location/Type
05:37PM 41.9690 -87.9190 270° West 166 191 600  Level FlightAware
05:38PM 41.9700 -87.9480 273° West 165 190 1,300 1,320 Climbing FlightAware
05:38PM 41.9780 -87.9610 310° West 174 200 1,600 1,440 Climbing FlightAware
05:38PM 41.9850 -87.9640 342° North 176 203 1,900 1,320 Climbing FlightAware
05:39PM 42.0090 -87.9480 26° Northeast 208 239 2,500 1,380 Climbing FlightAware
05:39PM 42.0310 -87.9210 42° Northeast 227 261 3,300 1,500 Climbing FlightAware
05:40PM 42.0530 -87.8950 41° Northeast 246 283 3,900 1,200 Climbing FlightAware
05:40PM 42.0800 -87.8640 40° Northeast 272 313 4,400 600 Climbing FlightAware
05:41PM 42.1020 -87.8390 40° Northeast 281 323 4,500 1,560 Climbing FlightAware
05:41PM 42.1300 -87.8050 42° Northeast 288 331 5,700 2,700 Climbing FlightAware
05:42PM 42.1640 -87.7640 42° Northeast 292 336 7,200 2,460 Climbing FlightAware
05:42PM 42.1820 -87.7280 56° Northeast 301 346 8,200 2,400 Climbing FlightAware
05:42PM 42.1880 -87.6990 74° East 307 353 8,800 2,220 Climbing FlightAware
05:43PM 42.1950 -87.6470 80° East 309 356 9,900 2,100 Climbing FlightAware
05:43PM 42.2080 -87.5610 78° East 328 377 11,300 1,680 Climbing FlightAware
05:44PM 42.2200 -87.4790 79° East 360 414 12,200 1,080 Climbing FlightAware
05:45PM 42.2340 -87.3810 79° East 403 464 12,900 1,440 Climbing FlightAware
05:46PM 42.2490 -87.2760 79° East 420 483 14,300 2,280 Climbing FlightAware
05:46PM 42.2670 -87.1490 79° East 444 511 16,200 2,400 Climbing FlightAware
05:47PM 42.2800 -87.0350 81° East 468 539 17,700 2,220 Climbing FlightAware
05:48PM 42.2860 -86.9010 86° East 485 558 19,400 2,100 Climbing FlightAware
05:48PM 42.2920 -86.7630 87° East 501 577 20,900 2,100 Climbing FlightAware
05:49PM 42.2960 -86.6360 88° East 512 589 22,400 2,100 Climbing FlightAware
05:50PM 42.3010 -86.5100 87° East 524 603 23,700 1,800 Climbing FlightAware
05:51PM 42.3060 -86.3630 87° East 536 617 25,000 1,740 Climbing FlightAware
05:51PM 42.3110 -86.2210 87° East 548 631 26,200 1,680 Climbing FlightAware
05:52PM 42.3150 -86.0690 88° East 559 643 27,400 1,500 Climbing FlightAware
05:53PM 42.3140 -85.9290 91° East 568 654 28,400 1,860 Climbing FlightAware
05:53PM 42.3120 -85.7870 91° East 564 649 29,900 1,860 Climbing FlightAware
05:54PM 42.3100 -85.6270 91° East 565 650 31,100 1,620 Climbing FlightAware
05:55PM 42.3080 -85.4850 91° East 564 649 32,200 1,320 Climbing FlightAware
05:55PM 42.3060 -85.3310 91° East 567 652 33,000 540 Climbing FlightAware
05:56PM 42.3030 -85.1830 92° East 566 651 33,000  Level FlightAware
05:57PM 42.3000 -85.0500 92° East 563 648 33,000  Level FlightAware
05:58PM 42.2970 -84.8880 91° East 560 644 33,000  Level FlightAware
05:58PM 42.2940 -84.7720 92° East 559 643 33,000  Level FlightAware
05:59PM 42.2900 -84.6120 92° East 558 642 33,000  Level FlightAware
06:00PM 42.2910 -84.4560 89° East 557 641 33,000  Level FlightAware
06:00PM 42.3070 -84.3210 81° East 554 638 33,000  Level FlightAware
06:01PM 42.3280 -84.1760 79° East 551 634 33,000  Level FlightAware
06:02PM 42.3450 -84.0550 79° East 550 633 33,000  Level FlightAware
06:02PM 42.3700 -83.8800 79° East 551 634 33,000  Level FlightAware
06:03PM 42.3880 -83.7470 80° East 552 635 33,000  Level FlightAware
06:04PM 42.4090 -83.6040 79° East 553 636 33,000  Level FlightAware
06:04PM 42.4270 -83.5070 76° East 554 638 33,000  Level FlightAware
06:05PM 42.4670 -83.3590 70° East 557 641 33,000  Level FlightAware
06:06PM 42.4980 -83.2530 68° East 558 642 33,000  Level FlightAware
06:07PM 42.5450 -83.0850 69° East 559 643 33,000  Level FlightAware
06:07PM 42.5810 -82.9520 70° East 559 643 33,000  Level FlightAware
06:08PM 42.6200 -82.8040 70° East 557 641 33,000  Level FlightAware
06:09PM 42.6570 -82.6600 71° East 557 641 33,000  Level FlightAware
06:09PM 42.6870 -82.5460 70° East 558 642 33,000  Level FlightAware
06:10PM 42.7220 -82.4090 71° East 557 641 33,000  Level FlightAware
06:11PM 42.7720 -82.2140 71° East 557 641 33,000  Level FlightAware
06:12PM 42.8080 -82.0740 71° East 555 639 33,000  Level FlightAware
06:12PM 42.8460 -81.9220 71° East 555 639 33,000  Level FlightAware
06:13PM 42.8770 -81.7980 71° East 555 639 33,000  Level FlightAware
06:14PM 42.9180 -81.6350 71° East 555 639 33,000  Level FlightAware
06:15PM 42.9530 -81.4930 71° East 557 641 33,000  Level FlightAware
06:15PM 42.9860 -81.3600 71° East 557 641 33,000  Level FlightAware
06:16PM 43.0230 -81.2110 71° East 558 642 33,000  Level FlightAware
06:17PM 43.0650 -81.0800 66° East 557 641 33,000  Level FlightAware
06:17PM 43.1200 -80.9480 60° Northeast 556 640 33,000  Level FlightAware
06:18PM 43.1720 -80.8260 60° Northeast 556 640 33,000  Level FlightAware
06:19PM 43.2260 -80.6990 60° Northeast 557 641 33,000  Level FlightAware
06:19PM 43.2830 -80.5610 60° Northeast 557 641 33,000  Level FlightAware
06:20PM 43.3330 -80.4390 61° Northeast 557 641 33,000  Level FlightAware
06:21PM 43.3860 -80.3090 61° Northeast 557 641 33,000  Level FlightAware
06:22PM 43.4400 -80.1750 61° Northeast 557 641 33,000  Level FlightAware
06:22PM 43.4890 -80.0540 61° Northeast 557 641 33,000  Level FlightAware
06:23PM 43.5460 -79.9130 61° Northeast 557 641 33,000  Level FlightAware
06:24PM 43.5950 -79.7900 61° Northeast 557 641 33,000  Level FlightAware
06:24PM 43.6500 -79.6480 62° Northeast 556 640 33,000  Level FlightAware
06:25PM 43.6910 -79.5180 66° East 557 641 33,000  Level FlightAware
06:26PM 43.7330 -79.3770 68° East 558 642 33,000  Level FlightAware
06:26PM 43.7740 -79.2370 68° East 557 641 33,000  Level FlightAware
06:27PM 43.8120 -79.1050 68° East 558 642 33,000  Level FlightAware
06:28PM 43.8550 -78.9550 68° East 560 644 33,000  Level FlightAware
06:29PM 43.8930 -78.8230 68° East 563 648 33,000  Level FlightAware
06:29PM 43.9360 -78.6730 68° East 564 649 33,000  Level FlightAware
06:30PM 43.9740 -78.5380 69° East 566 651 33,000  Level FlightAware
06:31PM 44.0120 -78.4070 68° East 570 656 33,000  Level FlightAware
06:31PM 44.0670 -78.2540 63° Northeast 573 659 33,000  Level FlightAware
06:32PM 44.1120 -78.1350 62° Northeast 573 659 33,000  Level FlightAware
06:33PM 44.1720 -77.9780 62° Northeast 572 658 33,000  Level FlightAware
06:33PM 44.2160 -77.8610 62° Northeast 573 659 33,000  Level FlightAware
06:34PM 44.2710 -77.7180 62° Northeast 571 657 33,000  Level FlightAware
06:35PM 44.3270 -77.5740 61° Northeast 571 657 33,000  Level FlightAware
06:36PM 44.3790 -77.4540 59° Northeast 571 657 33,000  Level FlightAware
06:36PM 44.4450 -77.3050 58° Northeast 571 657 33,000  Level FlightAware
06:37PM 44.4940 -77.1970 58° Northeast 570 656 33,000  Level FlightAware
06:38PM 44.5550 -77.0600 58° Northeast 571 657 33,000  Level FlightAware
06:38PM 44.6170 -76.9200 58° Northeast 568 654 33,000  Level FlightAware
06:39PM 44.7070 -76.7150 58° Northeast 570 656 33,000  Level FlightAware
06:41PM 44.8340 -76.4250 58° Northeast 574 661 33,000  Level FlightAware
06:42PM 44.8850 -76.3070 59° Northeast 575 662 33,000  Level FlightAware
06:42PM 44.9350 -76.1620 64° Northeast 578 665 33,000  Level FlightAware
06:43PM 44.9720 -76.0200 70° East 578 665 33,000  Level FlightAware
06:44PM 45.0140 -75.8460 71° East 579 666 33,000  Level FlightAware
06:44PM 45.0490 -75.6980 71° East 579 666 33,000  Level FlightAware
06:45PM 45.0860 -75.5410 71° East 581 669 33,000  Level FlightAware
06:46PM 45.1210 -75.3950 71° East 582 670 33,000  Level FlightAware
06:47PM 45.1590 -75.2320 72° East 583 671 33,000  Level FlightAware
06:47PM 45.1940 -75.0850 71° East 583 671 33,000  Level FlightAware
06:48PM 45.2270 -74.9450 71° East 584 672 33,000  Level FlightAware
06:49PM 45.2860 -74.7910 61° Northeast 601 692 33,000  Level FlightAware
06:49PM 45.3590 -74.6770 48° Northeast 604 695 33,000  Level FlightAware
06:50PM 45.4490 -74.5430 46° Northeast 603 694 33,000  Level FlightAware
06:51PM 45.5250 -74.4280 47° Northeast 602 693 33,000  Level FlightAware
06:51PM 45.6080 -74.2990 47° Northeast 600 690 33,000  Level FlightAware
06:52PM 45.6780 -74.1790 50° Northeast 600 690 33,000  Level FlightAware
06:53PM 45.7500 -74.0550 50° Northeast 600 690 33,000  Level FlightAware
06:54PM 45.8290 -73.9190 50° Northeast 599 689 33,000  Level FlightAware
06:54PM 45.9030 -73.7920 50° Northeast 600 690 33,000  Level FlightAware
06:55PM 45.9800 -73.6610 50° Northeast 599 689 33,000  Level FlightAware
06:56PM 46.0520 -73.5360 50° Northeast 598 688 33,000  Level FlightAware
06:56PM 46.1230 -73.4140 50° Northeast 599 689 33,000  Level FlightAware
06:57PM 46.2030 -73.2740 50° Northeast 598 688 33,000  Level FlightAware
06:58PM 46.2740 -73.1490 51° Northeast 598 688 33,000  Level FlightAware
06:58PM 46.3500 -73.0120 51° Northeast 598 688 33,000  Level FlightAware
06:59PM 46.4190 -72.8890 51° Northeast 597 687 33,000  Level FlightAware
07:00PM 46.4880 -72.7660 51° Northeast 595 685 33,000  Level FlightAware
07:01PM 46.5680 -72.6210 51° Northeast 593 682 33,000  Level FlightAware
07:01PM 46.6360 -72.4970 51° Northeast 592 681 33,000  Level FlightAware
07:02PM 46.7120 -72.3600 51° Northeast 592 681 33,000  Level FlightAware
07:02PM 46.7620 -72.2680 52° Northeast 593 682 33,000  Level FlightAware
07:03PM 46.7667 -72.2500 52° Northeast 590 679 33,000  Level Moncton Center
07:03PM 46.8333 -72.1167 54° Northeast 590 679 33,000  Level Montreal Center
07:04PM 46.9333 -71.9333 51° Northeast 590 679 33,000  Level Montreal Center
07:05PM 47.0333 -71.7333 54° Northeast 590 679 33,000  Level Montreal Center
07:06PM 47.1333 -71.5500 51° Northeast 590 679 33,000  Level Montreal Center
07:07PM 47.2333 -71.3500 54° Northeast 590 679 33,000  Level Montreal Center
07:08PM 47.3333 -71.1667 51° Northeast 590 679 33,000  Level Montreal Center
07:09PM 47.4333 -70.9833 51° Northeast 590 679 33,000  Level Montreal Center
07:15PM 47.9860 -69.9290 51° Northeast 603 694 33,000  Level FlightAware
07:15PM 48.0580 -69.7840 53° Northeast 604 695 33,000  Level FlightAware
07:16PM 48.1340 -69.6320 53° Northeast 605 696 33,000  Level FlightAware
07:17PM 48.1910 -69.5180 53° Northeast 605 696 33,000  Level FlightAware
07:17PM 48.2490 -69.4040 53° Northeast 605 696 33,000  Level FlightAware
07:18PM 48.3200 -69.2610 53° Northeast 605 696 33,000  Level FlightAware
07:19PM 48.3770 -69.1470 53° Northeast 605 696 33,000  Level FlightAware
07:20PM 48.4350 -69.0330 52° Northeast 605 696 33,000  Level FlightAware
07:20PM 48.4920 -68.9180 53° Northeast 605 696 33,000  Level FlightAware
07:21PM 48.5490 -68.8030 53° Northeast 605 696 33,000  Level FlightAware
07:22PM 48.6210 -68.6590 53° Northeast 605 696 33,000  Level FlightAware
07:22PM 48.6780 -68.5440 53° Northeast 605 696 33,000  Level FlightAware
07:23PM 48.7350 -68.4290 53° Northeast 605 696 33,000  Level FlightAware
07:24PM 48.7930 -68.3140 53° Northeast 605 696 33,000  Level FlightAware
07:24PM 48.8500 -68.1980 53° Northeast 605 696 33,000  Level FlightAware
07:25PM 48.9220 -68.0540 53° Northeast 605 696 33,000  Level FlightAware
07:26PM 49.0667 -67.6333 53° Northeast 620 713 33,000  Level Gander Center
07:26PM 49.1333 -67.4667 59° Northeast 610 702 33,000  Level Montreal Center
07:27PM 49.2333 -67.2833 50° Northeast 620 713 33,000  Level Montreal Center
07:28PM 49.3333 -67.0500 57° Northeast 620 713 33,000  Level Montreal Center
07:29PM 49.4167 -66.8333 59° Northeast 610 702 33,000  Level Montreal Center
07:30PM 49.5333 -66.6000 52° Northeast 620 713 33,000  Level Montreal Center
07:31PM 49.6167 -66.4000 57° Northeast 620 713 33,000  Level Montreal Center
07:32PM 49.6667 -66.3167 47° Northeast 620 713 33,000  Level Moncton Center
07:33PM 49.7667 -66.0833 56° Northeast 630 725 33,000  Level Moncton Center
07:33PM 49.8167 -65.9333 63° Northeast 630 725 33,000  Level Montreal Center
07:34PM 49.8667 -65.8500 47° Northeast 630 725 33,000  Level Moncton Center
07:34PM 49.9167 -65.7333 56° Northeast 630 725 33,000  Level Montreal Center
07:35PM 50.0167 -65.5000 56° Northeast 630 725 33,000  Level Montreal Center
07:36PM 50.1000 -65.2667 61° Northeast 630 725 33,000  Level Montreal Center
07:37PM 50.2000 -65.0333 56° Northeast 640 736 33,000  Level Montreal Center
07:38PM 50.3000 -64.8000 56° Northeast 640 736 33,000  Level Montreal Center
07:39PM 50.4167 -64.5500 54° Northeast 650 748 33,000  Level Montreal Center
07:40PM 50.4500 -64.4833 52° Northeast 650 748 33,000  Level Moncton Center
07:41PM 50.5500 -64.2167 59° Northeast 660 760 33,000  Level Moncton Center
07:42PM 50.6500 -63.9667 58° Northeast 670 771 33,000  Level Moncton Center
07:43PM 50.7667 -63.7167 54° Northeast 690 794 33,000  Level Moncton Center
07:44PM 50.8667 -63.4500 59° Northeast 700 806 33,000  Level Moncton Center
07:45PM 50.9500 -63.2000 62° Northeast 690 794 33,000  Level Moncton Center
07:46PM 51.0500 -62.9333 59° Northeast 680 783 33,000  Level Moncton Center
07:47PM 51.1500 -62.6833 57° Northeast 670 771 33,000  Level Moncton Center
07:48PM 51.2500 -62.4167 59° Northeast 670 771 33,000  Level Moncton Center
07:49PM 51.3500 -62.1667 57° Northeast 670 771 33,000  Level Moncton Center
07:50PM 51.4333 -61.9000 63° Northeast 670 771 33,000  Level Moncton Center
07:51PM 51.5333 -61.6500 57° Northeast 660 760 33,000  Level Moncton Center
07:52PM 51.6333 -61.3833 59° Northeast 660 760 33,000  Level Moncton Center
07:53PM 51.7167 -61.1333 62° Northeast 660 760 33,000  Level Moncton Center
07:54PM 51.8167 -60.8833 57° Northeast 660 760 33,000  Level Moncton Center
07:55PM 51.9167 -60.6333 57° Northeast 660 760 33,000 180 Level Moncton Center
07:56PM 51.9833 -60.3833 67° East 650 748 33,400 960 Climbing Moncton Center
07:57PM 52.1000 -60.1167 54° Northeast 650 748 35,000 780 Climbing Moncton Center
07:58PM 52.1833 -59.8667 61° Northeast 650 748 35,000  Level Moncton Center
07:59PM 52.2667 -59.6167 61° Northeast 650 748 35,000  Level Moncton Center
08:00PM 52.3667 -59.3833 55° Northeast 650 748 35,000  Level Moncton Center
08:01PM 52.4500 -59.1000 64° Northeast 650 748 35,000  Level Moncton Center
08:02PM 52.5500 -58.8667 55° Northeast 640 736 35,000  Level Moncton Center
08:03PM 52.6333 -58.6167 61° Northeast 640 736 35,000  Level Gander Center
08:04PM 52.7333 -58.3833 55° Northeast 640 736 35,000  Level Gander Center
08:05PM 52.8167 -58.1000 64° Northeast 640 736 35,000  Level Gander Center
08:06PM 52.9000 -57.8667 59° Northeast 640 736 35,000  Level Gander Center
08:07PM 53.0000 -57.5833 60° Northeast 640 736 35,000  Level Gander Center
08:08PM 53.0833 -57.3500 59° Northeast 640 736 35,000  Level Gander Center
08:09PM 53.1500 -57.1000 66° East 640 736 35,000  Level Gander Center
08:10PM 53.2500 -56.8167 59° Northeast 640 736 35,000  Level Moncton Center
08:11PM 53.3333 -56.5500 62° Northeast 630 725 35,000  Level Moncton Center
08:12PM 53.4167 -56.2833 62° Northeast 630 725 35,000  Level Moncton Center
08:13PM 53.5000 -56.0333 61° Northeast 630 725 35,000  Level Moncton Center
08:14PM 53.5833 -55.7667 62° Northeast 620 713 35,000  Level Moncton Center
08:15PM 53.6667 -55.5167 61° Northeast 620 713 35,000  Level Moncton Center
08:16PM 53.7500 -55.2833 59° Northeast 620 713 35,000  Level Moncton Center
08:17PM 53.8333 -55.0000 63° Northeast 630 725 35,000  Level Moncton Center
08:18PM 53.9000 -54.7333 67° East 630 725 35,000  Level Moncton Center
08:19PM 53.9833 -54.4667 62° Northeast 630 725 35,000  Level Moncton Center
08:20PM 54.0500 -54.2167 65° Northeast 630 725 35,000  Level Moncton Center
08:21PM 54.1000 -53.9500 72° East 630 725 35,000  Level Gander Center
08:22PM 54.1833 -53.6833 62° Northeast 630 725 35,000  Level Gander Center
08:23PM 54.2333 -53.3833 74° East 630 725 35,000  Level Gander Center
08:24PM 54.3000 -53.1167 67° East 620 713 35,000  Level Gander Center
08:25PM 54.3667 -52.8333 68° East 620 713 35,000  Level Gander Center
08:26PM 54.4167 -52.5667 72° East 620 713 35,000  Level Gander Center
08:27PM 54.4833 -52.2833 68° East 620 713 35,000  Level Gander Center
08:28PM 54.5500 -52.0167 67° East 620 713 35,000  Level Gander Center
08:29PM 54.6000 -51.7500 72° East 620 713 35,000 -300 Level Gander Center
08:30PM 54.6833 -51.4667 63° Northeast 620 713 34,500  Descending Gander Center
08:32PM 54.7833 -50.9167 72° East 620 713 35,000 120 Climbing Gander Center
08:33PM 54.8500 -50.6333 68° East 620 713 35,000  Level Gander Center
08:34PM 54.9000 -50.3500 73° East 620 713 35,000  Level Gander Center
08:36PM 55.0136 -49.9044 76° East  Level FlightAware Approximate
08:43PM 55.2571 -48.0846 76° East  Level FlightAware Approximate
08:44PM 55.2897 -47.8228 78° East  Level FlightAware Approximate
08:45PM 55.3217 -47.5606 78° East  Level FlightAware Approximate
08:46PM 55.3531 -47.2980 78° East  Level FlightAware Approximate
08:47PM 55.3832 -47.0347 79° East  Level FlightAware Approximate
08:48PM 55.4122 -46.7708 79° East  Level FlightAware Approximate
08:49PM 55.4405 -46.5065 79° East  Level FlightAware Approximate
08:50PM 55.4683 -46.2419 79° East  Level FlightAware Approximate
08:51PM 55.4955 -45.9769 80° East  Level FlightAware Approximate
08:52PM 55.5226 -45.7116 79° East  Level FlightAware Approximate
08:53PM 55.5509 -45.4466 79° East  Level FlightAware Approximate
08:54PM 55.5787 -45.1812 79° East  Level FlightAware Approximate
08:55PM 55.6059 -44.9154 80° East  Level FlightAware Approximate
08:56PM 55.6325 -44.6493 80° East  Level FlightAware Approximate
08:57PM 55.6585 -44.3828 80° East  Level FlightAware Approximate
08:58PM 55.6839 -44.1159 80° East  Level FlightAware Approximate
08:59PM 55.7088 -43.8487 81° East  Level FlightAware Approximate
09:00PM 55.7331 -43.5812 81° East  Level FlightAware Approximate
09:01PM 55.7568 -43.3133 81° East  Level FlightAware Approximate
09:02PM 55.7799 -43.0451 81° East  Level FlightAware Approximate
09:03PM 55.8025 -42.7766 81° East  Level FlightAware Approximate
09:04PM 55.8244 -42.5078 82° East  Level FlightAware Approximate
09:05PM 55.8458 -42.2387 82° East  Level FlightAware Approximate
09:06PM 55.8666 -41.9693 82° East  Level FlightAware Approximate
09:07PM 55.8867 -41.6996 82° East  Level FlightAware Approximate
09:08PM 55.9063 -41.4296 83° East  Level FlightAware Approximate
09:09PM 55.9254 -41.1594 83° East  Level FlightAware Approximate
09:10PM 55.9438 -40.8889 83° East  Level FlightAware Approximate
09:11PM 55.9616 -40.6182 83° East  Level FlightAware Approximate
09:12PM 55.9788 -40.3472 83° East  Level FlightAware Approximate
09:13PM 55.9954 -40.0760 84° East  Level FlightAware Approximate
09:14PM 56.0078 -39.8040 86° East  Level FlightAware Approximate
09:15PM 56.0181 -39.5315 86° East  Level FlightAware Approximate
09:16PM 56.0278 -39.2590 86° East  Level FlightAware Approximate
09:17PM 56.0369 -38.9863 86° East  Level FlightAware Approximate
09:18PM 56.0454 -38.7135 87° East  Level FlightAware Approximate
09:19PM 56.0533 -38.4406 87° East  Level FlightAware Approximate
09:20PM 56.0606 -38.1675 87° East  Level FlightAware Approximate
09:21PM 56.0673 -37.8944 87° East  Level FlightAware Approximate
09:22PM 56.0734 -37.6212 88° East  Level FlightAware Approximate
09:23PM 56.0789 -37.3479 88° East  Level FlightAware Approximate
09:24PM 56.0838 -37.0745 88° East  Level FlightAware Approximate
09:25PM 56.0881 -36.8011 88° East  Level FlightAware Approximate
09:26PM 56.0918 -36.5276 89° East  Level FlightAware Approximate
09:27PM 56.0948 -36.2540 89° East  Level FlightAware Approximate
09:28PM 56.0973 -35.9804 89° East  Level FlightAware Approximate
09:29PM 56.0992 -35.7068 89° East  Level FlightAware Approximate
09:30PM 56.1004 -35.4332 89° East  Level FlightAware Approximate
09:31PM 56.1011 -35.1595 90° East  Level FlightAware Approximate
09:32PM 56.1012 -34.8859 90° East  Level FlightAware Approximate
09:33PM 56.1006 -34.6122 90° East  Level FlightAware Approximate
09:34PM 56.0994 -34.3386 90° East  Level FlightAware Approximate
09:35PM 56.0977 -34.0650 91° East  Level FlightAware Approximate
09:36PM 56.0953 -33.7914 91° East  Level FlightAware Approximate
09:37PM 56.0923 -33.5178 91° East  Level FlightAware Approximate
09:38PM 56.0887 -33.2443 91° East  Level FlightAware Approximate
09:39PM 56.0846 -32.9709 91° East  Level FlightAware Approximate
09:40PM 56.0798 -32.6975 92° East  Level FlightAware Approximate
09:41PM 56.0744 -32.4241 92° East  Level FlightAware Approximate
09:42PM 56.0684 -32.1509 92° East  Level FlightAware Approximate
09:43PM 56.0618 -31.8778 92° East  Level FlightAware Approximate
09:44PM 56.0546 -31.6047 93° East  Level FlightAware Approximate
09:45PM 56.0468 -31.3318 93° East  Level FlightAware Approximate
09:46PM 56.0384 -31.0589 93° East  Level FlightAware Approximate
09:47PM 56.0294 -30.7862 93° East  Level FlightAware Approximate
09:48PM 56.0197 -30.5137 93° East  Level FlightAware Approximate
09:49PM 56.0095 -30.2412 94° East  Level FlightAware Approximate
09:50PM 55.9982 -29.9690 96° East  Level FlightAware Approximate
09:51PM 55.9823 -29.6976 96° East  Level FlightAware Approximate
09:52PM 55.9657 -29.4265 96° East  Level FlightAware Approximate
09:53PM 55.9486 -29.1556 96° East  Level FlightAware Approximate
09:54PM 55.9308 -28.8849 97° East  Level FlightAware Approximate
09:55PM 55.9125 -28.6145 97° East  Level FlightAware Approximate
09:56PM 55.8936 -28.3443 97° East  Level FlightAware Approximate
09:57PM 55.8740 -28.0744 97° East  Level FlightAware Approximate
09:58PM 55.8539 -27.8048 97° East  Level FlightAware Approximate
09:59PM 55.8332 -27.5355 98° East  Level FlightAware Approximate
10:00PM 55.8120 -27.2665 98° East  Level FlightAware Approximate
10:01PM 55.7901 -26.9977 98° East  Level FlightAware Approximate
10:02PM 55.7676 -26.7293 98° East  Level FlightAware Approximate
10:03PM 55.7446 -26.4611 99° East  Level FlightAware Approximate
10:04PM 55.7210 -26.1933 99° East  Level FlightAware Approximate
10:05PM 55.6968 -25.9259 99° East  Level FlightAware Approximate
10:06PM 55.6720 -25.6587 99° East  Level FlightAware Approximate
10:07PM 55.6466 -25.3919 99° East  Level FlightAware Approximate
10:08PM 55.6207 -25.1255 100° East  Level FlightAware Approximate
10:09PM 55.5942 -24.8594 100° East  Level FlightAware Approximate
10:10PM 55.5671 -24.5937 100° East  Level FlightAware Approximate
10:11PM 55.5394 -24.3283 100° East  Level FlightAware Approximate
10:12PM 55.5112 -24.0633 101° East  Level FlightAware Approximate
10:13PM 55.4823 -23.7987 101° East  Level FlightAware Approximate
10:14PM 55.4530 -23.5345 101° East  Level FlightAware Approximate
10:15PM 55.4230 -23.2707 101° East  Level FlightAware Approximate
10:16PM 55.3925 -23.0073 101° East  Level FlightAware Approximate
10:17PM 55.3614 -22.7443 102° East  Level FlightAware Approximate
10:18PM 55.3298 -22.4817 102° East  Level FlightAware Approximate
10:19PM 55.2976 -22.2195 102° East  Level FlightAware Approximate
10:20PM 55.2648 -21.9578 102° East  Level FlightAware Approximate
10:21PM 55.2314 -21.6965 103° East  Level FlightAware Approximate
10:22PM 55.1976 -21.4357 103° East  Level FlightAware Approximate
10:23PM 55.1631 -21.1753 103° East  Level FlightAware Approximate
10:24PM 55.1281 -20.9153 103° East  Level FlightAware Approximate
10:25PM 55.0926 -20.6558 103° East  Level FlightAware Approximate
10:26PM 55.0565 -20.3968 104° East  Level FlightAware Approximate
10:27PM 55.0199 -20.1382 104° East  Level FlightAware Approximate
10:28PM 54.9889 -19.8779 99° East  Level FlightAware Approximate
10:29PM 54.9645 -19.6154 99° East  Level FlightAware Approximate
10:30PM 54.9396 -19.3531 99° East  Level FlightAware Approximate
10:31PM 54.9141 -19.0913 100° East  Level FlightAware Approximate
10:32PM 54.8881 -18.8297 100° East  Level FlightAware Approximate
10:33PM 54.8615 -18.5685 100° East  Level FlightAware Approximate
10:34PM 54.8343 -18.3076 100° East  Level FlightAware Approximate
10:35PM 54.8056 -18.0379 100° East  Level FlightAware Approximate
10:36PM 54.7763 -17.7686 101° East  Level FlightAware Approximate
10:37PM 54.7464 -17.4996 101° East  Level FlightAware Approximate
10:38PM 54.7159 -17.2311 101° East  Level FlightAware Approximate
10:39PM 54.6848 -16.9629 101° East  Level FlightAware Approximate
10:40PM 54.6531 -16.6952 101° East  Level FlightAware Approximate
10:41PM 54.6209 -16.4279 102° East  Level FlightAware Approximate
10:42PM 54.5880 -16.1610 102° East  Level FlightAware Approximate
10:42PM 53.9360 -14.3040 102° East 552 635 35,000  Level FlightAware
10:43PM 54.5546 -15.8946 102° East  Level FlightAware Approximate
10:43PM 53.9060 -13.9950 99° East 549 632 35,000  Level FlightAware
10:45PM 53.8570 -13.4990 99° East 553 636 36,000 480 Climbing FlightAware
10:46PM 53.8390 -13.3310 100° East 556 640 36,300 480 Climbing FlightAware
10:46PM 53.8180 -13.1320 100° East 561 646 36,700 480 Climbing FlightAware
10:47PM 53.8000 -12.9610 100° East 559 643 37,000 180 Climbing FlightAware
10:48PM 53.7820 -12.7880 100° East 552 635 37,000  Level FlightAware
10:48PM 53.7610 -12.6030 101° East 546 628 37,000  Level FlightAware
10:49PM 53.7430 -12.4390 100° East 543 625 37,000  Level FlightAware
10:50PM 53.7210 -12.2450 101° East 543 625 37,000  Level FlightAware
10:50PM 53.7030 -12.0850 101° East 542 624 37,000  Level FlightAware
10:51PM 53.6840 -11.9180 101° East 542 624 37,000  Level FlightAware
10:52PM 53.6610 -11.7270 101° East 543 625 37,000  Level FlightAware
10:53PM 53.6420 -11.5650 101° East 544 626 37,000  Level FlightAware
10:53PM 53.6200 -11.3790 101° East 543 625 37,000  Level FlightAware
10:54PM 53.5990 -11.2090 102° East 546 628 37,000  Level FlightAware
10:55PM 53.5790 -11.0450 102° East 545 627 37,000  Level FlightAware
10:55PM 53.5560 -10.8640 102° East 542 624 37,000  Level FlightAware
10:56PM 53.5350 -10.6950 102° East 540 621 37,000  Level FlightAware
10:57PM 53.5140 -10.5320 102° East 540 621 37,000  Level FlightAware
10:57PM 53.4900 -10.3470 102° East 540 621 37,000  Level FlightAware
10:58PM 53.4680 -10.1840 103° East 538 619 37,000  Level FlightAware
10:59PM 53.4440 -9.9990 102° East 537 618 37,000  Level FlightAware
11:00PM 53.4220 -9.8390 103° East 534 615 37,000  Level FlightAware
11:00PM 53.4000 -9.6760 103° East 534 615 37,000  Level FlightAware
11:01PM 53.3760 -9.4980 103° East 535 616 37,000  Level FlightAware
11:02PM 53.3520 -9.3320 104° East 535 616 37,000  Level FlightAware
11:02PM 53.3270 -9.1530 103° East 536 617 37,000 -1,140 Level FlightAware
11:03PM 53.3025 -8.9772 103° East 494 568 35,500  Descending FlightAware UK
11:03PM 53.3040 -8.9920 103° East 536 617 37,000  Climbing FlightAware
11:03PM 53.2885 -8.8802 103° East 494 568 35,500 -2,280 Descending FlightAware UK
11:04PM 53.2780 -8.8078 104° East 498 573 35,500 4,980 Level FlightAware UK
11:04PM 53.2810 -8.8310 104° East 538 619 37,000  Climbing FlightAware
11:04PM 53.2674 -8.7349 104° East 500 575 35,500 -2,520 Descending FlightAware UK
11:04PM 53.2571 -8.6632 104° East 498 573 35,500 4,080 Level FlightAware UK
11:04PM 53.2570 -8.6670 104° East 536 617 37,000  Climbing FlightAware
11:05PM 53.2429 -8.5664 104° East 498 573 35,500 -2,400 Descending FlightAware UK
11:05PM 53.2322 -8.4946 104° East 498 573 35,500 3,600 Level FlightAware UK
11:05PM 53.2310 -8.4890 104° East 534 615 37,000  Climbing FlightAware
11:05PM 53.2179 -8.3988 104° East 496 571 35,500 -2,580 Descending FlightAware UK
11:06PM 53.2071 -8.3269 104° East 496 571 35,500 3,900 Level FlightAware UK
11:06PM 53.2070 -8.3280 104° East 531 611 37,000  Climbing FlightAware
11:06PM 53.1929 -8.2315 104° East 494 568 35,500 120 Descending FlightAware UK
11:07PM 53.1800 -8.1460 104° East 529 609 37,100 180 Climbing FlightAware
11:07PM 53.1753 -8.1126 104° East 492 566 35,600 -5,280 Descending FlightAware UK
11:07PM 53.1680 -8.0652 104° East 490 564 35,700 600 Climbing FlightAware UK
11:07PM 53.1574 -7.9951 104° East 490 564 35,900 4,200 Climbing FlightAware UK
11:07PM 53.1560 -7.9910 104° East 526 605 37,400 480 Climbing FlightAware
11:08PM 53.1430 -7.9012 104° East 490 564 36,100 -2,040 Descending FlightAware UK
11:08PM 53.1322 -7.8310 104° East 490 564 36,200 3,720 Climbing FlightAware UK
11:08PM 53.1290 -7.8160 104° East 527 606 37,800 480 Climbing FlightAware
11:08PM 53.1175 -7.7364 104° East 492 566 36,400 300 Descending FlightAware UK
11:09PM 53.1050 -7.6570 104° East 530 610 38,000 180 Climbing FlightAware
11:09PM 53.0994 -7.6192 104° East 494 568 36,500 -3,960 Descending FlightAware UK
11:09PM 53.0884 -7.5480 104° East 496 571 36,500 2,520 Level FlightAware UK
11:09PM 53.0800 -7.5000 105° East 530 610 38,000  Climbing FlightAware
11:09PM 53.0772 -7.4772 105° East 500 575 36,500 -4,740 Descending FlightAware UK
11:10PM 53.0657 -7.4057 105° East 496 571 36,500  Level FlightAware UK
11:10PM 53.0546 -7.3353 105° East 492 566 36,500 3,420 Level FlightAware UK
11:10PM 53.0520 -7.3220 105° East 526 605 38,000  Climbing FlightAware
11:10PM 53.0396 -7.2417 105° East 492 566 36,500 -2,700 Descending FlightAware UK
11:11PM 53.0284 -7.1715 105° East 494 568 36,500 3,720 Level FlightAware UK
11:11PM 53.0280 -7.1690 105° East 524 603 38,000  Climbing FlightAware
11:11PM 53.0098 -7.0548 105° East 488 562 36,500  Descending FlightAware UK
11:11PM 53.0020 -7.0100 105° East 523 602 38,000  Climbing FlightAware
11:11PM 52.9985 -6.9850 105° East 488 562 36,500 -4,500 Descending FlightAware UK
11:12PM 52.9870 -6.9152 105° East 494 568 36,500  Level FlightAware UK
11:12PM 52.9755 -6.8446 105° East 492 566 36,500 3,600 Level FlightAware UK
11:12PM 52.9730 -6.8330 105° East 524 603 38,000  Climbing FlightAware
11:12PM 52.9603 -6.7523 105° East 496 571 36,500 -2,580 Descending FlightAware UK
11:13PM 52.9487 -6.6817 105° East 500 575 36,500 3,900 Level FlightAware UK
11:13PM 52.9480 -6.6820 105° East 522 601 38,000  Climbing FlightAware
11:13PM 52.9294 -6.5658 105° East 498 573 36,500 -2,100 Descending FlightAware UK
11:14PM 52.9180 -6.4967 105° East 490 564 36,500 4,500 Level FlightAware UK
11:14PM 52.9190 -6.5060 105° East 516 594 38,000  Climbing FlightAware
11:14PM 52.9067 -6.4290 105° East 488 562 36,500 -2,700 Descending FlightAware UK
11:14PM 52.8952 -6.3605 106° East 488 562 36,500 3,720 Level FlightAware UK
11:14PM 52.8940 -6.3540 106° East 517 595 38,000  Climbing FlightAware
11:15PM 52.8796 -6.2681 106° East 484 557 36,500 -2,460 Descending FlightAware UK
11:15PM 52.8679 -6.1993 106° East 494 568 36,500 4,260 Level FlightAware UK
11:15PM 52.8680 -6.2010 106° East 518 596 38,000  Climbing FlightAware
11:15PM 52.8562 -6.1305 106° East 492 566 36,500 -2,340 Descending FlightAware UK
11:16PM 52.8404 -6.0390 106° East 490 564 36,500 3,000 Level FlightAware UK
11:16PM 52.8380 -6.0250 106° East 517 595 38,000  Climbing FlightAware
11:16PM 52.8210 -5.9245 106° East 488 562 36,500 -2,160 Descending FlightAware UK
11:16PM 52.8089 -5.8553 106° East 490 564 36,500 4,260 Level FlightAware UK
11:16PM 52.8090 -5.8570 106° East 520 598 38,000  Climbing FlightAware
11:17PM 52.7929 -5.7640 106° East 492 566 36,500 -2,340 Descending FlightAware UK
11:17PM 52.7809 -5.6956 106° East 492 566 36,500 4,680 Level FlightAware UK
11:17PM 52.7820 -5.7020 106° East 519 597 38,000  Climbing FlightAware
11:17PM 52.7689 -5.6274 106° East 488 562 36,500 -2,580 Descending FlightAware UK
11:18PM 52.7570 -5.5592 106° East 488 562 36,500 3,180 Level FlightAware UK
11:18PM 52.7520 -5.5340 106° East 518 596 38,000  Climbing FlightAware
11:18PM 52.7367 -5.4443 106° East 488 562 36,500 -2,400 Descending FlightAware UK
11:18PM 52.7245 -5.3757 106° East 488 562 36,500 4,500 Level FlightAware UK
11:18PM 52.7260 -5.3820 106° East 518 596 38,000 12,840 Climbing FlightAware
11:19PM 52.7204 -5.3530 108° East 518 596 38,000 -4,140 Level FlightAware ADS-B
11:19PM 52.7086 -5.2867 108° East 490 564 36,500 -2,580 Descending FlightAware UK
11:19PM 52.6963 -5.2181 106° East 490 564 36,500 4,680 Level FlightAware UK
11:19PM 52.6959 -5.2166 106° East 518 596 38,000  Climbing FlightAware ADS-B
11:20PM 52.6802 -5.1285 106° East 492 566 36,500  Descending FlightAware UK
11:20PM 52.6708 -5.0762 106° East 516 594 38,000  Climbing FlightAware ADS-B
11:20PM 52.6597 -5.0154 106° East 486 559 36,500 -2,760 Descending FlightAware UK
11:20PM 52.6476 -4.9482 107° East 488 562 36,500 2,880 Level FlightAware UK
11:21PM 52.6410 -4.9130 107° East 512 589 38,000  Climbing FlightAware
11:21PM 52.6273 -4.8366 107° East 482 555 36,500  Descending FlightAware UK
11:21PM 52.6193 -4.7936 107° East 513 590 38,000  Climbing FlightAware ADS-B
11:22PM 52.5983 -4.6798 107° East 480 552 36,500  Descending FlightAware UK
11:22PM 52.5972 -4.6737 107° East 513 590 38,000  Climbing FlightAware ADS-B
11:22PM 52.5861 -4.6136 107° East 486 559 36,500  Descending FlightAware UK
11:22PM 52.5761 -4.5598 107° East 514 592 38,000  Climbing FlightAware ADS-B
11:22PM 52.5652 -4.5011 107° East 490 564 36,500  Descending FlightAware UK
11:23PM 52.5538 -4.4407 107° East 514 592 38,000  Climbing FlightAware ADS-B
11:23PM 52.5402 -4.3672 107° East 490 564 36,500  Descending FlightAware UK
11:23PM 52.5326 -4.3281 107° East 512 589 38,000  Climbing FlightAware ADS-B
11:23PM 52.5193 -4.2569 107° East 488 562 36,500  Descending FlightAware UK
11:24PM 52.5114 -4.2157 107° East 511 588 38,000  Climbing FlightAware ADS-B
11:24PM 52.4980 -4.1455 107° East 486 559 36,500  Descending FlightAware UK
11:24PM 52.4897 -4.1022 107° East 511 588 38,000  Climbing FlightAware ADS-B
11:24PM 52.4768 -4.0343 107° East 484 557 36,500  Descending FlightAware UK
11:25PM 52.4683 -3.9900 107° East 511 588 38,000  Climbing FlightAware ADS-B
11:25PM 52.4558 -3.9245 107° East 482 555 36,500  Descending FlightAware UK
11:25PM 52.4466 -3.8771 107° East 514 592 38,000  Climbing FlightAware ADS-B
11:25PM 52.4346 -3.8137 107° East 488 562 36,500  Descending FlightAware UK
11:26PM 52.4244 -3.7626 107° East 513 590 38,000  Climbing FlightAware ADS-B
11:26PM 52.4087 -3.6809 107° East 488 562 36,500  Descending FlightAware UK
11:26PM 52.4028 -3.6512 107° East 513 590 38,000  Climbing FlightAware ADS-B
11:27PM 52.3870 -3.5703 107° East 486 559 36,500  Descending FlightAware UK
11:27PM 52.3811 -3.5400 107° East 513 590 38,000  Climbing FlightAware ADS-B
11:27PM 52.3694 -3.4805 107° East 490 564 36,500  Descending FlightAware UK
11:27PM 52.3594 -3.4299 107° East 512 589 38,000  Climbing FlightAware ADS-B
11:27PM 52.3478 -3.3711 107° East 490 564 36,500  Descending FlightAware UK
11:28PM 52.3372 -3.3179 107° East 510 587 38,000  Climbing FlightAware ADS-B
11:28PM 52.3262 -3.2614 107° East 488 562 36,500  Descending FlightAware UK
11:28PM 52.3145 -3.2042 107° East 508 585 38,000  Climbing FlightAware ADS-B
11:29PM 52.2997 -3.1305 107° East 484 557 36,500  Descending FlightAware UK
11:29PM 52.2899 -3.0819 107° East 508 585 38,000  Climbing FlightAware ADS-B
11:29PM 52.2777 -3.0215 107° East 482 555 36,500  Descending FlightAware UK
11:29PM 52.2672 -2.9692 107° East 508 585 38,000  Climbing FlightAware ADS-B
11:30PM 52.2557 -2.9126 107° East 486 559 36,500  Descending FlightAware UK
11:30PM 52.2435 -2.8522 107° East 509 586 38,000  Climbing FlightAware ADS-B
11:30PM 52.2292 -2.7810 107° East 484 557 36,500  Descending FlightAware UK
11:30PM 52.2176 -2.7246 107° East 508 585 38,000  Climbing FlightAware ADS-B
11:31PM 52.2026 -2.6513 107° East 484 557 36,500  Descending FlightAware UK
11:31PM 52.1939 -2.6096 107° East 508 585 38,000  Climbing FlightAware ADS-B
11:31PM 52.1800 -2.5415 107° East 488 562 36,500  Descending FlightAware UK
11:31PM 52.1712 -2.4999 107° East 507 583 38,000  Climbing FlightAware ADS-B
11:32PM 52.1574 -2.4327 107° East 486 559 36,500  Descending FlightAware UK
11:32PM 52.1487 -2.3911 107° East 506 582 38,000  Climbing FlightAware ADS-B
11:32PM 52.1350 -2.3242 107° East 484 557 36,500  Descending FlightAware UK
11:32PM 52.1240 -2.2728 107° East 505 581 38,000 1,920 Climbing FlightAware ADS-B
11:33PM 52.1012 -2.1640 109° East 504 580 38,000 -1,800 Level FlightAware ADS-B
11:33PM 52.0855 -2.0890 109° East 486 559 36,500  Descending FlightAware UK
11:34PM 52.0785 -2.0563 109° East 503 579 38,000  Climbing FlightAware ADS-B
11:34PM 52.0627 -1.9815 109° East 482 555 36,500  Descending FlightAware UK
11:34PM 52.0556 -1.9489 109° East 503 579 38,000  Climbing FlightAware ADS-B
11:34PM 52.0444 -1.8955 109° East 478 550 36,500  Descending FlightAware UK
11:35PM 52.0328 -1.8422 109° East 503 579 38,000  Climbing FlightAware ADS-B
11:35PM 52.0123 -1.7463 109° East 482 555 36,500  Descending FlightAware UK
11:35PM 52.0096 -1.7341 109° East 503 579 38,000  Climbing FlightAware ADS-B
11:35PM 51.9939 -1.6610 109° East 482 555 36,500  Descending FlightAware UK
11:36PM 51.9861 -1.6254 109° East 503 579 38,000  Climbing FlightAware ADS-B
11:36PM 51.9705 -1.5531 109° East 482 555 36,500  Descending FlightAware UK
11:36PM 51.9627 -1.5174 109° East 504 580 38,000  Climbing FlightAware ADS-B
11:36PM 51.9478 -1.4487 109° East 482 555 36,500  Descending FlightAware UK
11:37PM 51.9389 -1.4081 109° East 504 580 38,000  Climbing FlightAware ADS-B
11:37PM 51.9243 -1.3408 109° East 484 557 36,500  Descending FlightAware UK
11:37PM 51.9156 -1.3018 109° East 504 580 38,000  Climbing FlightAware ADS-B
11:37PM 51.9008 -1.2346 109° East 486 559 36,500  Descending FlightAware UK
11:38PM 51.8920 -1.1948 109° East 503 579 38,000  Climbing FlightAware ADS-B
11:38PM 51.8774 -1.1285 109° East 482 555 36,500  Descending FlightAware UK
11:38PM 51.8686 -1.0890 109° East 503 579 38,000  Climbing FlightAware ADS-B
11:38PM 51.8537 -1.0220 109° East 484 557 36,500  Descending FlightAware UK
11:39PM 51.8448 -0.9819 109° East 503 579 38,000  Climbing FlightAware ADS-B
11:39PM 51.8252 -0.8947 109° East 482 555 36,500  Descending FlightAware UK
11:39PM 51.8212 -0.8763 109° East 502 578 38,000  Climbing FlightAware ADS-B
11:39PM 51.8065 -0.8111 109° East 482 555 36,500  Descending FlightAware UK
11:40PM 51.7971 -0.7688 109° East 502 578 38,000  Climbing FlightAware ADS-B
11:40PM 51.7824 -0.7045 109° East 484 557 36,500  Descending FlightAware UK
11:40PM 51.7729 -0.6614 109° East 501 577 38,000  Climbing FlightAware ADS-B
11:40PM 51.7589 -0.6000 109° East 484 557 36,500  Descending FlightAware UK
11:41PM 51.7488 -0.5558 109° East 501 577 38,000  Climbing FlightAware ADS-B
11:41PM 51.7302 -0.4742 109° East 488 562 36,500  Descending FlightAware UK
11:41PM 51.7245 -0.4492 109° East 499 574 38,000  Climbing FlightAware ADS-B
11:41PM 51.7110 -0.3907 109° East 488 562 36,500  Descending FlightAware UK
11:42PM 51.7003 -0.3439 109° East 497 572 38,000  Climbing FlightAware ADS-B
11:42PM 51.6871 -0.2866 109° East 484 557 36,500  Descending FlightAware UK
11:42PM 51.6762 -0.2396 109° East 495 570 38,000  Climbing FlightAware ADS-B
11:42PM 51.6582 -0.1619 109° East 482 555 36,500  Descending FlightAware UK
11:43PM 51.6519 -0.1350 109° East 495 570 38,000  Climbing FlightAware ADS-B
11:43PM 51.6391 -0.0802 109° East 486 559 36,500  Descending FlightAware UK
11:43PM 51.6278 -0.0311 109° East 495 570 38,000  Climbing FlightAware ADS-B
11:43PM 51.6150 0.0236 109° East 486 559 36,500  Descending FlightAware UK
11:44PM 51.6036 0.0725 109° East 493 567 38,000  Climbing FlightAware ADS-B
11:44PM 51.5862 0.1469 109° East 484 557 36,500  Descending FlightAware UK
11:44PM 51.5789 0.1778 109° East 493 567 38,000  Climbing FlightAware ADS-B
11:44PM 51.5667 0.2295 109° East 482 555 36,500  Descending FlightAware UK
11:45PM 51.5544 0.2815 109° East 492 566 38,000  Climbing FlightAware ADS-B
11:45PM 51.5330 0.3719 109° East 480 552 36,500  Descending FlightAware UK
11:45PM 51.5300 0.3843 109° East 493 567 38,000  Climbing FlightAware ADS-B
11:45PM 51.5133 0.4542 109° East 482 555 36,500  Descending FlightAware UK
11:46PM 51.5052 0.4879 109° East 493 567 38,000  Climbing FlightAware ADS-B
11:46PM 51.4886 0.5570 109° East 488 562 36,500  Descending FlightAware UK
11:46PM 51.4807 0.5904 109° East 492 566 38,000  Climbing FlightAware ADS-B
11:47PM 51.4593 0.6791 109° East 484 557 36,500  Descending FlightAware UK
11:47PM 51.4556 0.6946 109° East 490 564 38,000  Climbing FlightAware ADS-B
11:47PM 51.4349 0.7796 109° East 482 555 36,500  Descending FlightAware UK
11:47PM 51.4308 0.7971 109° East 490 564 38,000  Climbing FlightAware ADS-B
11:47PM 51.4154 0.8604 109° East 480 552 36,500  Descending FlightAware UK
11:48PM 51.4057 0.9003 109° East 490 564 38,000  Climbing FlightAware ADS-B
11:48PM 51.3908 0.9615 109° East 482 555 36,500  Descending FlightAware UK
11:48PM 51.3809 1.0021 109° East 490 564 38,000  Climbing FlightAware ADS-B
11:48PM 51.3660 1.0626 109° East 482 555 36,500  Descending FlightAware UK
11:49PM 51.3559 1.1038 109° East 491 565 38,000  Climbing FlightAware ADS-B
11:49PM 51.3411 1.1635 109° East 482 555 36,500  Descending FlightAware UK
11:49PM 51.3307 1.2056 109° East 492 566 38,000  Climbing FlightAware ADS-B
11:49PM 51.3161 1.2646 109° East 482 555 36,500  Descending FlightAware UK
11:50PM 51.3056 1.3074 109° East 492 566 38,000  Climbing FlightAware ADS-B
11:50PM 51.2911 1.3665 109° East 486 559 36,500  Descending FlightAware UK
11:50PM 51.2859 1.3876 109° East 492 566 38,000  Climbing FlightAware ADS-B
11:50PM 51.2730 1.4477 109° East 484 557 36,500 -2,580 Descending FlightAware UK
11:51PM 51.2608 1.5105 107° East 484 557 36,500 4,500 Level FlightAware UK
11:51PM 51.2602 1.5157 107° East 492 566 38,000  Climbing FlightAware ADS-B
11:51PM 51.2497 1.5724 107° East 484 557 36,500 -2,700 Descending FlightAware UK
11:51PM 51.2391 1.6353 105° East 484 557 36,500 3,720 Level FlightAware UK
11:51PM 51.2380 1.6470 105° East 492 566 38,000 4,980 Climbing FlightAware
11:52PM 51.2296 1.6973 105° East 492 566 38,000 -3,000 Level FlightAware ADS-B
11:52PM 51.2191 1.7616 105° East 482 555 36,500  Descending FlightAware UK
11:52PM 51.2125 1.8040 105° East 493 567 38,000  Climbing FlightAware ADS-B
11:52PM 51.1992 1.8880 105° East 480 552 36,500  Descending FlightAware UK
11:53PM 51.1941 1.9199 105° East 493 567 38,000  Climbing FlightAware ADS-B
11:53PM 51.1857 1.9723 105° East 478 550 36,500  Descending FlightAware UK
11:53PM 51.1747 2.0416 105° East 496 571 38,000  Climbing FlightAware ADS-B
11:53PM 51.1652 2.0994 105° East 478 550 36,500  Descending FlightAware UK
11:54PM 51.1560 2.1573 105° East 497 572 38,000  Climbing FlightAware ADS-B
11:54PM 51.1446 2.2256 105° East 482 555 36,500  Descending FlightAware UK
11:54PM 51.1382 2.2660 105° East 497 572 38,000  Climbing FlightAware ADS-B
11:55PM 51.1270 2.3331 105° East 490 564 36,500  Descending FlightAware UK
11:55PM 51.1198 2.3773 105° East 496 571 38,000  Climbing FlightAware ADS-B
11:55PM 51.1098 2.4383 105° East 488 562 36,500 -2,220 Descending FlightAware UK
11:55PM 51.0955 2.5240 105° East 488 562 36,500 3,180 Level FlightAware UK
11:56PM 51.0950 2.5280 105° East 492 566 38,000  Climbing FlightAware
11:56PM 51.0813 2.6077 105° East 486 559 36,500 -2,400 Descending FlightAware UK
11:56PM 51.0707 2.6702 105° East 486 559 36,500 4,500 Level FlightAware UK
11:56PM 51.0730 2.6550 105° East 490 564 38,000  Climbing FlightAware
11:57PM 51.0566 2.7534 105° East 484 557 36,500 -2,280 Descending FlightAware UK
11:57PM 51.0458 2.8155 105° East 484 557 36,500 3,900 Level FlightAware UK
11:57PM 51.0460 2.8170 105° East 490 564 38,000  Climbing FlightAware
11:57PM 51.0315 2.8991 105° East 484 557 36,500 -2,400 Descending FlightAware UK
11:58PM 51.0207 2.9612 105° East 484 557 36,500 3,600 Level FlightAware UK
11:58PM 51.0190 2.9720 105° East 490 564 38,000  Climbing FlightAware
11:58PM 51.0062 3.0441 105° East 484 557 36,500 -2,580 Descending FlightAware UK
11:58PM 50.9953 3.1063 106° East 484 557 36,500 3,900 Level FlightAware UK
11:58PM 50.9970 3.0990 106° East 491 565 38,000  Climbing FlightAware
11:59PM 50.9809 3.1886 106° East 486 559 36,500 -2,460 Descending FlightAware UK
11:59PM 50.9697 3.2524 105° East 488 562 36,500 4,080 Level FlightAware UK
11:59PM 50.9700 3.2510 105° East 492 566 38,000  Climbing FlightAware
11:59PM 50.9589 3.3140 105° East 486 559 36,500 -2,760 Descending FlightAware UK
12:00AM 50.9480 3.3771 105° East 488 562 36,500 3,000 Level FlightAware UK
12:00AM 50.9430 3.4070 105° East 491 565 38,000  Climbing FlightAware
12:00AM 50.9224 3.5226 105° East 486 559 36,500  Descending FlightAware UK
12:00AM 50.9180 3.5440 105° East 491 565 38,000  Climbing FlightAware
12:01AM 50.9036 3.6260 105° East 486 559 36,500 -2,400 Descending FlightAware UK
12:01AM 50.8924 3.6882 106° East 486 559 36,500 3,600 Level FlightAware UK
12:01AM 50.8910 3.6990 106° East 491 565 38,000  Climbing FlightAware
12:02AM 50.8738 3.7919 106° East 490 564 36,500  Descending FlightAware UK
12:02AM 50.8650 3.8400 106° East 491 565 38,000  Climbing FlightAware
12:02AM 50.8625 3.8541 106° East 490 564 36,500 -4,740 Descending FlightAware UK
12:02AM 50.8514 3.9161 106° East 492 566 36,500  Level FlightAware UK
12:02AM 50.8401 3.9781 106° East 488 562 36,500 4,260 Level FlightAware UK
12:03AM 50.8400 3.9760 106° East 489 563 38,000  Climbing FlightAware
12:03AM 50.8289 4.0399 106° East 490 564 36,500 -2,760 Descending FlightAware UK
12:03AM 50.8174 4.1014 106° East 490 564 36,500 3,000 Level FlightAware UK
12:03AM 50.8120 4.1300 106° East 488 562 38,000  Climbing FlightAware
12:04AM 50.7984 4.2037 106° East 492 566 36,500 -2,520 Descending FlightAware UK
12:04AM 50.7873 4.2651 106° East 492 566 36,500 4,080 Level FlightAware UK
12:04AM 50.7870 4.2670 106° East 485 558 38,000  Climbing FlightAware
12:04AM 50.7722 4.3472 106° East 488 562 36,500 -2,400 Descending FlightAware UK
12:05AM 50.7610 4.4081 106° East 488 562 36,500 3,600 Level FlightAware UK
12:05AM 50.7590 4.4180 106° East 484 557 38,000  Climbing FlightAware
12:05AM 50.7459 4.4892 106° East 488 562 36,500 -2,580 Descending FlightAware UK
12:05AM 50.7345 4.5501 106° East 488 562 36,500 3,900 Level FlightAware UK
12:05AM 50.7330 4.5560 106° East 483 556 38,000  Climbing FlightAware
12:06AM 50.7195 4.6314 106° East 488 562 36,500 -2,460 Descending FlightAware UK
12:06AM 50.7080 4.6922 107° East 486 559 36,500 4,260 Level FlightAware UK
12:06AM 50.7080 4.6880 107° East 483 556 38,000  Climbing FlightAware
12:06AM 50.6966 4.7530 107° East 486 559 36,500  Descending FlightAware UK
12:07AM 50.6850 4.8090 107° East 483 556 38,000 1,080 Climbing FlightAware
12:08AM 50.6480 5.0020 107° East 482 555 38,000  Level FlightAware
12:08AM 50.6220 5.1360 107° East 483 556 38,000  Level FlightAware
12:09AM 50.5890 5.3050 107° East 480 552 38,000 -360 Level FlightAware
12:10AM 50.5640 5.4310 107° East 489 563 37,500 -1,440 Descending FlightAware
12:10AM 50.5380 5.5640 107° East 484 557 36,100 -2,400 Descending FlightAware
12:11AM 50.5070 5.7180 108° East 471 542 34,100 -3,000 Descending FlightAware
12:12AM 50.4780 5.8610 108° East 479 551 31,900 -3,060 Descending FlightAware
12:13AM 50.4490 6.0040 108° East 476 548 29,800 -2,940 Descending FlightAware
12:13AM 50.4220 6.1380 108° East 492 566 27,800 -3,000 Descending FlightAware
12:14AM 50.3930 6.2800 108° East 488 562 25,800 -2,280 Descending FlightAware
12:15AM 50.3680 6.3990 108° East 483 556 25,000 -1,740 Descending FlightAware
12:15AM 50.3370 6.5560 107° East 482 555 23,400 -1,920 Descending FlightAware
12:16AM 50.3130 6.6810 107° East 471 542 22,200 -1,980 Descending FlightAware
12:17AM 50.2830 6.8330 107° East 455 524 20,600 -2,100 Descending FlightAware
12:18AM 50.2550 6.9760 107° East 448 516 19,100 -2,100 Descending FlightAware
12:18AM 50.2310 7.0960 107° East 443 510 17,700 -2,040 Descending FlightAware
12:19AM 50.1970 7.2660 107° East 435 501 15,900 -1,980 Descending FlightAware
12:20AM 50.1720 7.3860 108° East 428 493 14,600 -1,920 Descending FlightAware
12:21AM 50.1460 7.5160 107° East 411 473 13,200 -1,200 Descending FlightAware
12:22AM 50.0860 7.6840 119° Southeast 362 417 12,400 -900 Descending FlightAware
12:22AM 50.0520 7.7460 130° Southeast 343 395 11,700 -1,140 Descending FlightAware
12:23AM 50.0250 7.7840 138° Southeast 323 372 11,400 -840 Descending FlightAware
12:23AM 49.9650 7.8170 161° South 305 351 10,800 -960 Descending FlightAware
12:24AM 49.9130 7.8440 162° South 273 314 10,100 -1,140 Descending FlightAware
12:24AM 49.8960 7.8600 149° Southeast 259 298 9,800 -1,200 Descending FlightAware
12:24AM 49.8900 7.8710 130° Southeast 254 292 9,600 -1,440 Descending FlightAware
12:25AM 49.8850 7.8970 107° East 250 288 9,200 -1,620 Descending FlightAware
12:25AM 49.8900 7.9680 84° East 247 284 8,000 -1,500 Descending FlightAware
12:26AM 49.9010 8.0110 68° East 235 270 7,500 -1,140 Descending FlightAware
12:26AM 49.9120 8.0570 70° East 219 252 7,000 -1,140 Descending FlightAware
12:27AM 49.9220 8.0990 70° East 202 232 6,400 -1,320 Descending FlightAware
12:27AM 49.9300 8.1330 70° East 196 226 5,800 -1,200 Descending FlightAware
12:28AM 49.9350 8.1520 68° East 187 215 5,600 -960 Descending FlightAware
12:28AM 49.9440 8.1880 69° East 168 193 5,100 -1,020 Descending FlightAware
12:28AM 49.9510 8.2150 68° East 160 184 4,700 -1,020 Descending FlightAware
12:29AM 49.9580 8.2470 71° East 151 174 4,200 -1,020 Descending FlightAware
12:29AM 49.9650 8.2720 66° East 150 173 3,800 -900 Descending FlightAware
12:30AM 49.9720 8.3020 70° East 151 174 3,400 -840 Descending FlightAware
12:30AM 49.9790 8.3330 71° East 149 171 3,000 -900 Descending FlightAware
12:31AM 49.9820 8.3430 65° Northeast 147 169 2,800 -900 Descending FlightAware
12:31AM 49.9890 8.3720 69° East 137 158 2,400 -720 Descending FlightAware
12:32AM 49.9950 8.3990 71° East 127 146 2,100 -600 Descending FlightAware
12:32AM 49.9970 8.4050 63° Northeast 126 145 2,000 -780 Descending FlightAware
12:32AM 50.0060 8.4300 61° Northeast 123 142 1,600 -480 Descending FlightAware
12:33AM 50.0130 8.4460 56° Northeast 123 142 1,600  Level FlightAware
12:35AM 50.0264 8.5431 111° Southeast  Level Estimated
12:36AM 50.0264 8.5431 111° Southeast  Level Estimated
12:37AM 50.0264 8.5431 111° Southeast  Level Estimated
12:38AM 50.0264 8.5431 111° Southeast  Level Estimated